Предлагаем Вашему вниманию английскую версию страницы: AUTOTAF.ME UWWW - aviation weather forecast Samara (Kurumoch)

AUTOTAF UWWW - авиапрогноз Самара (Курумоч)

Сегодня рассвет 02:52 UTC, восход солнца 03:28 UTC,
местный полдень 08:23 UTC, заход солнца 13:17 UTC,
наступление темноты 13:54 UTC.

Краткий прогноз UWWW на 9 часов

AUTOTAF.ME UWWW 260800Z 2609/2618 31009G14MPS 9999 BKN013      
  FM261800 34004MPS 9999 BKN008

Детальный прогноз UWWW на 24 часа

AUTOTAF.ME UWWW 260800Z 2609/2709 31009G14MPS 9999 BKN013 TX04/2609Z TNM02/2700Z    
  FM261800 34004MPS 9999 BKN008    
  BECMG 2704/2706 SKC

Подробный табличный прогноз

Время (UTC) miniAUTOTAF на 3 ч WX FZLVL
M AGL
ICE TURB Т
(°С)
Тd
(°С)
f(%) QNH
(гПа)
WIND/T
06 32009G14MPS 9999 BKN013 240 MOD FL20/FL30 MOD SFC/FL30 3 -2 72 1017 ...
09 31009G14MPS 9999 BKN013 360 MOD FL20/FL70 MOD SFC/FL30 4 -1 70 1017 ...
12 32010G15MPS 9999 BKN014 420 FBL FL40/FL50 MOD SFC/FL30 4 -1 72 1019 ...
15 34009G14MPS 9999 BKN014 270 MOD FL20/FL50 MOD SFC/FL30 3 -2 71 1021 ...
18 34004MPS 9999 BKN008 70 FBL FL20/FL30 MOD SFC/FL20 0 -3 81 1024 ...
21 34003MPS 9999 SCT008 SFC MOD FL10/FL20 MOD SFC/FL20 -1 -3 84 1026 ...
27.10.2020
00 33003MPS 9999 SCT009 SFC MOD SFC/FL20 -2 -5 80 1028 ...
03 34003MPS 9999 SCT009 SFC MOD SFC/FL20 -2 -5 82 1029 ...
06 35004MPS 9999 SKC 30 MOD FL10/FL20 MOD SFC/FL20 0 -5 69 1030 ...
09 34006MPS 9999 SKC 210 MOD SFC/FL20 3 -4 57 1031 ...
12 34004MPS 9999 SKC 300 MOD SFC/FL20 3 -4 62 1032 ...
15 VRB02MPS 9999 SCT310 SFC -0 -4 76 1033 ...
18 VRB02MPS 9999 BKN270 SFC -0 -4 77 1034 ...
21 VRB02MPS 9999 OVC230 SFC -1 -4 75 1034 ...
28.10.2020
00 VRB02MPS 9999 OVC230 SFC -1 -5 73 1034 ...
03 VRB02MPS 9999 SCT210 SFC -1 -5 74 1034 ...


Широта 53.50111°, долгота 50.15389°, высота 145 м абс.
Средняя высота рельефа местности 137 м абс.
Прогнозы обновляются четыре раза в сутки: в 02, 08, 14, 20 ч всемирного времени.


Выбрать прогноз по другой модели Самара (Курумоч)
Онлайн-сводка гроз по Самара (Курумоч) (для РФ и ближнего зарубежья)
Карта фактических гроз в окрестностях Самара (Курумоч)
Динамические прогностические карты (ventusky.com)
Прогностическая карта высоты нижней границы облаков по Самара (Курумоч) (windy.com)
Выбрать другой город

Прогноз предназначен для личного научно-познавательного использования частными лицами
и не предназначен для принятия важных решений и выполнения реальных полётов воздушных судов

При копировании или ином использовании любых материалов данного сайта ссылка на © meteocenter.asia обязательна.

1.17/1.6